METAR ET TAF INFORMATION
METAR FOR EKVG
ADDS - METARS form results

(1923 UTC 26 May 2020)
Data provider http://aviationweather.gov/metar/data/
 
METAR text: EKVG 261920Z AUTO 24009KT 210V290 9999 -RA BKN013/// 08/06 Q1025
Conditions at: EKVG (SORVAAG/VAGAR , DK) observed 1920 UTC 26 May 2020
Temperature: 8.0°C (46°F)
Dewpoint: 6.0°C (43°F) [RH = 87%]
Pressure (altimeter): 30.27 inches Hg (1025.0 mb)
Winds: from the WSW (240 degrees) at 10 MPH (9 knots; 4.6 m/s)
Visibility: 6 or more miles (10+ km)
Ceiling: 1300 feet AGL
Clouds: broken clouds at 1300 feet AGL
Weather: -RA  (light rain)

METAR text: EKVG 261850Z AUTO 25012G22KT 220V290 9999 BKN015/// BKN047/// 09/06 Q1025
Conditions at: EKVG (SORVAAG/VAGAR , DK) observed 1850 UTC 26 May 2020
Temperature: 9.0°C (48°F)
Dewpoint: 6.0°C (43°F) [RH = 81%]
Pressure (altimeter): 30.27 inches Hg (1025.0 mb)
Winds: from the WSW (250 degrees) at 14 MPH (12 knots; 6.2 m/s)
gusting to 25 MPH (22 knots; 11.3 m/s)
Visibility: 6 or more miles (10+ km)
Ceiling: 1500 feet AGL
Clouds: broken clouds at 1500 feet AGL
broken clouds at 4700 feet AGL
Weather: no significant weather observed at this time

Forecast for: EKVG (SORVAAG/VAGAR , DK)
Text: TAF EKVG 261359Z 2615/2621 24015G25KT 9999 BKN018
Forecast period: 1500 to 1700 UTC 26 May 2020
Forecast type: FROM: standard forecast or significant change
Winds: from the WSW (240 degrees) at 17 MPH (15 knots; 7.7 m/s)
gusting to 29 MPH (25 knots; 12.9 m/s)
Visibility: 6 or more miles 10+ km)
Ceiling: 1800 feet AGL
Clouds: broken clouds at 1800 feet AGL
Weather: no significant weather forecast for this period
Text: TEMPO 2615/2621 5000 SHRA BKN012CB
Forecast period: 1500 to 2100 UTC 26 May 2020
Forecast type: TEMPORARY: The following changes expected for less than half the time period
Visibility: 3 miles (5 km)
Ceiling: 1200 feet AGL
Clouds: broken clouds at 1200 feet AGL
Weather: SHRA  (rain showers)
Text: BECMG 2617/2619 26016KT
Forecast period: 1700 to 2100 UTC 26 May 2020
Forecast type: BECOMING: Conditions expected to become as follows by 1900 UTC 26 May 2020
Winds: from the W (260 degrees) at 18 MPH (16 knots; 8.2 m/s)
Visibility: 6 or more miles 10+ km)
Ceiling: 1800 feet AGL
Clouds: broken clouds at 1800 feet AGL
Weather: no significant weather forecast for this period

 AÉROPORT DE AÉROPORT

 INFORMATIONS DE PISTE
Piste 13 Longueur de la piste 5902 ft Largeur de la piste 98 ft
Élévation de la piste 268 ft Seuil de la piste déplacés 0 ft Runway heading 118
Piste 31 Longueur de la piste 5902 ft Largeur de la piste 98 ft
Élévation de la piste 252 ft Seuil de la piste déplacés 0 ft Runway heading 298

 AÉROPORT FRÉQUENCES
Type AFIS Nom AFIS Féquence 124.85 MHZ

 SIDA DE NAVIGATION
Type NDB Nom Myggenes Féquence 337 KHZ
Type NDB Nom Nolso Féquence 404 KHZ
Type NDB Nom Vagar Féquence 348 KHZ



Powered by Virtual Airlines Manager [v2.6.2]